sensor_id;sensor_type;location;lat;lon;timestamp;P1;durP1;ratioP1;P2;durP2;ratioP2
46377;SDS011;32083;47.360;9.650;2022-10-22T00:25:46;20.25;;;16.50;;
46377;SDS011;32083;47.360;9.650;2022-10-22T00:28:38;21.70;;;15.68;;
46377;SDS011;32083;47.360;9.650;2022-10-22T00:31:07;23.85;;;18.15;;
46377;SDS011;32083;47.360;9.650;2022-10-22T00:33:34;18.83;;;15.68;;
46377;SDS011;32083;47.360;9.650;2022-10-22T00:36:01;20.27;;;14.77;;
46377;SDS011;32083;47.360;9.650;2022-10-22T00:38:30;13.45;;;11.50;;
46377;SDS011;32083;47.360;9.650;2022-10-22T00:40:57;10.18;;;8.60;;
46377;SDS011;32083;47.360;9.650;2022-10-22T00:46:56;16.35;;;12.65;;
46377;SDS011;32083;47.360;9.650;2022-10-22T03:31:58;0.80;;;0.50;;
46377;SDS011;32083;47.360;9.650;2022-10-22T03:34:37;0.95;;;0.52;;
46377;SDS011;32083;47.360;9.650;2022-10-22T03:39:38;1.48;;;1.30;;
46377;SDS011;32083;47.360;9.650;2022-10-22T03:42:10;1.33;;;0.80;;
46377;SDS011;32083;47.360;9.650;2022-10-22T03:44:50;1.30;;;0.70;;
46377;SDS011;32083;47.360;9.650;2022-10-22T03:47:26;1.08;;;0.63;;
46377;SDS011;32083;47.360;9.650;2022-10-22T03:50:07;1.83;;;1.00;;
46377;SDS011;32083;47.360;9.650;2022-10-22T04:03:52;3.92;;;0.80;;
46377;SDS011;32083;47.360;9.650;2022-10-22T04:06:24;1.25;;;0.80;;
46377;SDS011;32083;47.360;9.650;2022-10-22T04:08:53;1.95;;;1.10;;
46377;SDS011;32083;47.360;9.650;2022-10-22T04:11:23;2.17;;;0.73;;
46377;SDS011;32083;47.360;9.650;2022-10-22T04:13:54;1.73;;;0.80;;
46377;SDS011;32083;47.360;9.650;2022-10-22T04:16:27;2.95;;;1.08;;
46377;SDS011;32083;47.360;9.650;2022-10-22T04:19:05;4.35;;;1.08;;
46377;SDS011;32083;47.360;9.650;2022-10-22T04:21:35;1.50;;;0.93;;
46377;SDS011;32083;47.360;9.650;2022-10-22T04:24:03;1.55;;;0.70;;
46377;SDS011;32083;47.360;9.650;2022-10-22T04:26:32;1.67;;;0.90;;
46377;SDS011;32083;47.360;9.650;2022-10-22T04:29:01;0.90;;;0.75;;
46377;SDS011;32083;47.360;9.650;2022-10-22T04:31:37;1.58;;;1.20;;
46377;SDS011;32083;47.360;9.650;2022-10-22T04:34:10;3.03;;;1.20;;
46377;SDS011;32083;47.360;9.650;2022-10-22T04:36:37;1.55;;;1.33;;
46377;SDS011;32083;47.360;9.650;2022-10-22T04:39:09;2.08;;;1.30;;
46377;SDS011;32083;47.360;9.650;2022-10-22T04:41:40;1.98;;;1.77;;
46377;SDS011;32083;47.360;9.650;2022-10-22T04:44:14;5.15;;;2.65;;
46377;SDS011;32083;47.360;9.650;2022-10-22T04:46:41;2.90;;;2.25;;
46377;SDS011;32083;47.360;9.650;2022-10-22T04:49:23;2.85;;;1.92;;
46377;SDS011;32083;47.360;9.650;2022-10-22T04:51:53;1.70;;;1.52;;
46377;SDS011;32083;47.360;9.650;2022-10-22T04:54:26;2.53;;;1.60;;
46377;SDS011;32083;47.360;9.650;2022-10-22T04:57:14;2.20;;;1.88;;
46377;SDS011;32083;47.360;9.650;2022-10-22T04:59:45;4.28;;;1.60;;
46377;SDS011;32083;47.360;9.650;2022-10-22T05:02:15;2.95;;;1.20;;
46377;SDS011;32083;47.360;9.650;2022-10-22T05:04:42;1.27;;;0.75;;
46377;SDS011;32083;47.360;9.650;2022-10-22T05:07:08;1.23;;;0.70;;
46377;SDS011;32083;47.360;9.650;2022-10-22T05:09:34;1.00;;;0.70;;
46377;SDS011;32083;47.360;9.650;2022-10-22T05:12:00;1.00;;;0.50;;
46377;SDS011;32083;47.360;9.650;2022-10-22T05:14:26;1.13;;;0.73;;
46377;SDS011;32083;47.360;9.650;2022-10-22T05:16:52;1.67;;;0.90;;
46377;SDS011;32083;47.360;9.650;2022-10-22T05:19:22;2.13;;;1.30;;
46377;SDS011;32083;47.360;9.650;2022-10-22T05:21:54;3.40;;;2.50;;
46377;SDS011;32083;47.360;9.650;2022-10-22T05:24:21;2.85;;;2.50;;
46377;SDS011;32083;47.360;9.650;2022-10-22T05:26:48;2.88;;;2.33;;
46377;SDS011;32083;47.360;9.650;2022-10-22T05:29:15;3.08;;;2.30;;
46377;SDS011;32083;47.360;9.650;2022-10-22T05:31:41;2.42;;;2.10;;
46377;SDS011;32083;47.360;9.650;2022-10-22T05:34:07;2.15;;;1.95;;
46377;SDS011;32083;47.360;9.650;2022-10-22T05:36:33;3.17;;;1.15;;
46377;SDS011;32083;47.360;9.650;2022-10-22T05:38:59;1.77;;;1.10;;
46377;SDS011;32083;47.360;9.650;2022-10-22T05:41:26;1.35;;;0.88;;
46377;SDS011;32083;47.360;9.650;2022-10-22T05:43:56;2.35;;;1.30;;
46377;SDS011;32083;47.360;9.650;2022-10-22T05:46:24;2.50;;;1.38;;
46377;SDS011;32083;47.360;9.650;2022-10-22T05:51:21;3.25;;;1.40;;
46377;SDS011;32083;47.360;9.650;2022-10-22T05:53:52;4.35;;;1.67;;
46377;SDS011;32083;47.360;9.650;2022-10-22T05:56:23;3.90;;;1.73;;
46377;SDS011;32083;47.360;9.650;2022-10-22T05:58:51;2.40;;;1.83;;
46377;SDS011;32083;47.360;9.650;2022-10-22T06:01:18;1.95;;;1.30;;
46377;SDS011;32083;47.360;9.650;2022-10-22T06:03:46;2.38;;;1.50;;
46377;SDS011;32083;47.360;9.650;2022-10-22T06:08:53;1.90;;;1.00;;
46377;SDS011;32083;47.360;9.650;2022-10-22T06:11:20;1.80;;;0.82;;
46377;SDS011;32083;47.360;9.650;2022-10-22T06:13:48;1.40;;;1.20;;
46377;SDS011;32083;47.360;9.650;2022-10-22T06:16:14;1.20;;;0.77;;
46377;SDS011;32083;47.360;9.650;2022-10-22T06:18:40;1.63;;;0.70;;
46377;SDS011;32083;47.360;9.650;2022-10-22T06:21:07;1.60;;;0.75;;
46377;SDS011;32083;47.360;9.650;2022-10-22T06:23:35;1.95;;;0.65;;
46377;SDS011;32083;47.360;9.650;2022-10-22T06:26:03;1.95;;;0.88;;
46377;SDS011;32083;47.360;9.650;2022-10-22T06:28:29;1.33;;;1.00;;
46377;SDS011;32083;47.360;9.650;2022-10-22T06:30:57;1.95;;;1.30;;
46377;SDS011;32083;47.360;9.650;2022-10-22T06:33:24;3.53;;;1.50;;
46377;SDS011;32083;47.360;9.650;2022-10-22T06:35:50;2.72;;;1.83;;
46377;SDS011;32083;47.360;9.650;2022-10-22T06:38:17;2.42;;;1.30;;
46377;SDS011;32083;47.360;9.650;2022-10-22T06:40:43;2.15;;;1.27;;
46377;SDS011;32083;47.360;9.650;2022-10-22T06:43:12;1.95;;;1.48;;
46377;SDS011;32083;47.360;9.650;2022-10-22T06:45:39;2.13;;;1.50;;
46377;SDS011;32083;47.360;9.650;2022-10-22T06:48:05;1.80;;;1.70;;
46377;SDS011;32083;47.360;9.650;2022-10-22T06:50:34;1.80;;;1.50;;
46377;SDS011;32083;47.360;9.650;2022-10-22T06:53:00;2.13;;;1.60;;
46377;SDS011;32083;47.360;9.650;2022-10-22T06:55:27;2.15;;;1.40;;
46377;SDS011;32083;47.360;9.650;2022-10-22T06:57:53;4.18;;;1.70;;
46377;SDS011;32083;47.360;9.650;2022-10-22T07:00:19;3.20;;;1.10;;
46377;SDS011;32083;47.360;9.650;2022-10-22T07:02:49;1.88;;;1.20;;
46377;SDS011;32083;47.360;9.650;2022-10-22T07:05:17;3.13;;;1.40;;
46377;SDS011;32083;47.360;9.650;2022-10-22T07:07:43;3.00;;;2.70;;
46377;SDS011;32083;47.360;9.650;2022-10-22T07:10:09;1.58;;;1.20;;
46377;SDS011;32083;47.360;9.650;2022-10-22T07:12:35;3.90;;;1.42;;
46377;SDS011;32083;47.360;9.650;2022-10-22T07:15:01;1.83;;;1.35;;
46377;SDS011;32083;47.360;9.650;2022-10-22T07:17:27;2.95;;;1.65;;
46377;SDS011;32083;47.360;9.650;2022-10-22T07:19:53;3.30;;;1.85;;
46377;SDS011;32083;47.360;9.650;2022-10-22T07:22:19;3.20;;;2.38;;
46377;SDS011;32083;47.360;9.650;2022-10-22T07:24:45;4.32;;;2.60;;
46377;SDS011;32083;47.360;9.650;2022-10-22T07:27:11;3.95;;;3.42;;
46377;SDS011;32083;47.360;9.650;2022-10-22T07:29:37;4.10;;;2.30;;
46377;SDS011;32083;47.360;9.650;2022-10-22T07:32:03;2.30;;;1.70;;
46377;SDS011;32083;47.360;9.650;2022-10-22T07:34:29;2.60;;;1.48;;
46377;SDS011;32083;47.360;9.650;2022-10-22T07:36:55;3.65;;;1.42;;
46377;SDS011;32083;47.360;9.650;2022-10-22T07:39:21;3.72;;;1.77;;
46377;SDS011;32083;47.360;9.650;2022-10-22T07:41:49;3.25;;;1.40;;
46377;SDS011;32083;47.360;9.650;2022-10-22T07:44:16;6.97;;;4.82;;
46377;SDS011;32083;47.360;9.650;2022-10-22T07:46:42;7.13;;;5.63;;
46377;SDS011;32083;47.360;9.650;2022-10-22T07:49:08;7.38;;;6.53;;
46377;SDS011;32083;47.360;9.650;2022-10-22T07:51:34;5.90;;;3.95;;
46377;SDS011;32083;47.360;9.650;2022-10-22T07:54:00;4.35;;;3.65;;
46377;SDS011;32083;47.360;9.650;2022-10-22T07:56:26;3.00;;;1.25;;
46377;SDS011;32083;47.360;9.650;2022-10-22T07:58:51;1.67;;;1.10;;
46377;SDS011;32083;47.360;9.650;2022-10-22T08:01:17;3.10;;;1.10;;
46377;SDS011;32083;47.360;9.650;2022-10-22T08:03:43;1.58;;;0.85;;
46377;SDS011;32083;47.360;9.650;2022-10-22T08:06:11;2.33;;;0.80;;
46377;SDS011;32083;47.360;9.650;2022-10-22T08:08:39;1.30;;;0.73;;
46377;SDS011;32083;47.360;9.650;2022-10-22T08:11:05;1.70;;;1.23;;
46377;SDS011;32083;47.360;9.650;2022-10-22T08:13:31;7.60;;;2.33;;
46377;SDS011;32083;47.360;9.650;2022-10-22T08:15:58;2.55;;;1.20;;
46377;SDS011;32083;47.360;9.650;2022-10-22T08:18:24;1.80;;;1.50;;
46377;SDS011;32083;47.360;9.650;2022-10-22T08:20:51;1.77;;;1.48;;
46377;SDS011;32083;47.360;9.650;2022-10-22T08:23:17;5.30;;;4.55;;
46377;SDS011;32083;47.360;9.650;2022-10-22T08:25:44;2.72;;;1.98;;
46377;SDS011;32083;47.360;9.650;2022-10-22T08:28:10;2.05;;;1.67;;
46377;SDS011;32083;47.360;9.650;2022-10-22T08:30:36;5.32;;;1.48;;
46377;SDS011;32083;47.360;9.650;2022-10-22T08:33:03;2.28;;;1.80;;
46377;SDS011;32083;47.360;9.650;2022-10-22T08:35:29;2.25;;;1.48;;
46377;SDS011;32083;47.360;9.650;2022-10-22T08:37:55;2.78;;;2.08;;
46377;SDS011;32083;47.360;9.650;2022-10-22T08:40:23;2.47;;;1.50;;
46377;SDS011;32083;47.360;9.650;2022-10-22T08:46:08;1.20;;;0.70;;
46377;SDS011;32083;47.360;9.650;2022-10-22T08:48:57;2.70;;;1.13;;
46377;SDS011;32083;47.360;9.650;2022-10-22T08:51:29;2.45;;;0.80;;
46377;SDS011;32083;47.360;9.650;2022-10-22T08:57:01;2.38;;;1.50;;
46377;SDS011;32083;47.360;9.650;2022-10-22T09:02:39;3.08;;;1.75;;
46377;SDS011;32083;47.360;9.650;2022-10-22T09:07:46;4.15;;;1.83;;
46377;SDS011;32083;47.360;9.650;2022-10-22T09:10:18;2.13;;;0.80;;
46377;SDS011;32083;47.360;9.650;2022-10-22T09:12:49;3.08;;;1.27;;
46377;SDS011;32083;47.360;9.650;2022-10-22T09:15:15;2.97;;;1.25;;
46377;SDS011;32083;47.360;9.650;2022-10-22T09:20:43;0.98;;;0.60;;
46377;SDS011;32083;47.360;9.650;2022-10-22T09:25:51;1.35;;;0.98;;
46377;SDS011;32083;47.360;9.650;2022-10-22T09:28:17;1.48;;;0.70;;
46377;SDS011;32083;47.360;9.650;2022-10-22T09:30:43;3.38;;;0.90;;
46377;SDS011;32083;47.360;9.650;2022-10-22T09:35:45;1.50;;;0.90;;
46377;SDS011;32083;47.360;9.650;2022-10-22T09:38:14;1.75;;;0.90;;
46377;SDS011;32083;47.360;9.650;2022-10-22T09:40:42;3.38;;;1.50;;
46377;SDS011;32083;47.360;9.650;2022-10-22T09:43:14;1.75;;;0.60;;
46377;SDS011;32083;47.360;9.650;2022-10-22T09:45:40;0.82;;;0.60;;
46377;SDS011;32083;47.360;9.650;2022-10-22T09:48:20;0.77;;;0.65;;
46377;SDS011;32083;47.360;9.650;2022-10-22T09:51:06;3.13;;;0.60;;
46377;SDS011;32083;47.360;9.650;2022-10-22T09:54:00;2.28;;;1.10;;
46377;SDS011;32083;47.360;9.650;2022-10-22T09:56:41;4.03;;;1.65;;
46377;SDS011;32083;47.360;9.650;2022-10-22T09:59:14;1.60;;;0.90;;
46377;SDS011;32083;47.360;9.650;2022-10-22T10:01:41;2.80;;;0.80;;
46377;SDS011;32083;47.360;9.650;2022-10-22T10:04:10;1.90;;;1.00;;
46377;SDS011;32083;47.360;9.650;2022-10-22T10:06:38;1.10;;;0.80;;
46377;SDS011;32083;47.360;9.650;2022-10-22T10:17:59;2.15;;;0.88;;
46377;SDS011;32083;47.360;9.650;2022-10-22T10:20:59;2.55;;;0.90;;
46377;SDS011;32083;47.360;9.650;2022-10-22T10:23:43;1.30;;;0.68;;
46377;SDS011;32083;47.360;9.650;2022-10-22T10:26:20;2.35;;;1.10;;
46377;SDS011;32083;47.360;9.650;2022-10-22T10:31:48;1.77;;;0.60;;
46377;SDS011;32083;47.360;9.650;2022-10-22T10:34:35;1.20;;;0.70;;
46377;SDS011;32083;47.360;9.650;2022-10-22T10:45:09;1.23;;;0.82;;
46377;SDS011;32083;47.360;9.650;2022-10-22T10:48:08;1.80;;;0.70;;
46377;SDS011;32083;47.360;9.650;2022-10-22T10:53:20;1.67;;;1.00;;
46377;SDS011;32083;47.360;9.650;2022-10-22T11:01:26;2.38;;;0.60;;
46377;SDS011;32083;47.360;9.650;2022-10-22T11:06:31;1.42;;;0.60;;
46377;SDS011;32083;47.360;9.650;2022-10-22T11:09:02;0.90;;;0.57;;
46377;SDS011;32083;47.360;9.650;2022-10-22T11:14:21;0.88;;;0.60;;
46377;SDS011;32083;47.360;9.650;2022-10-22T11:16:55;0.32;;;0.30;;
46377;SDS011;32083;47.360;9.650;2022-10-22T11:19:37;1.58;;;0.52;;
46377;SDS011;32083;47.360;9.650;2022-10-22T11:22:35;0.73;;;0.50;;
46377;SDS011;32083;47.360;9.650;2022-10-22T11:27:48;2.20;;;0.40;;
46377;SDS011;32083;47.360;9.650;2022-10-22T11:30:20;0.50;;;0.40;;
46377;SDS011;32083;47.360;9.650;2022-10-22T11:32:50;1.17;;;0.60;;
46377;SDS011;32083;47.360;9.650;2022-10-22T11:35:36;0.68;;;0.40;;
46377;SDS011;32083;47.360;9.650;2022-10-22T11:38:05;0.80;;;0.60;;
46377;SDS011;32083;47.360;9.650;2022-10-22T11:40:37;0.60;;;0.40;;
46377;SDS011;32083;47.360;9.650;2022-10-22T11:43:26;0.40;;;0.30;;
46377;SDS011;32083;47.360;9.650;2022-10-22T11:46:37;0.95;;;0.43;;
46377;SDS011;32083;47.360;9.650;2022-10-22T11:48:43;1.15;;;0.50;;
46377;SDS011;32083;47.360;9.650;2022-10-22T11:51:31;0.90;;;0.60;;
46377;SDS011;32083;47.360;9.650;2022-10-22T11:54:22;0.57;;;0.40;;
46377;SDS011;32083;47.360;9.650;2022-10-22T11:56:51;1.75;;;0.40;;
46377;SDS011;32083;47.360;9.650;2022-10-22T11:59:58;2.17;;;0.45;;
46377;SDS011;32083;47.360;9.650;2022-10-22T12:07:55;1.55;;;0.40;;
46377;SDS011;32083;47.360;9.650;2022-10-22T12:10:33;1.63;;;0.40;;
46377;SDS011;32083;47.360;9.650;2022-10-22T12:13:23;1.02;;;0.30;;
46377;SDS011;32083;47.360;9.650;2022-10-22T12:15:57;2.05;;;0.68;;
46377;SDS011;32083;47.360;9.650;2022-10-22T12:18:30;0.57;;;0.45;;
46377;SDS011;32083;47.360;9.650;2022-10-22T12:20:59;2.35;;;0.45;;
46377;SDS011;32083;47.360;9.650;2022-10-22T12:23:29;1.05;;;0.40;;
46377;SDS011;32083;47.360;9.650;2022-10-22T12:25:58;1.58;;;0.30;;
46377;SDS011;32083;47.360;9.650;2022-10-22T12:28:24;1.85;;;0.50;;
46377;SDS011;32083;47.360;9.650;2022-10-22T12:30:50;0.70;;;0.35;;
46377;SDS011;32083;47.360;9.650;2022-10-22T12:33:21;0.40;;;0.30;;
46377;SDS011;32083;47.360;9.650;2022-10-22T12:35:48;1.27;;;0.32;;
46377;SDS011;32083;47.360;9.650;2022-10-22T12:38:18;0.85;;;0.40;;
46377;SDS011;32083;47.360;9.650;2022-10-22T12:40:46;0.40;;;0.20;;
46377;SDS011;32083;47.360;9.650;2022-10-22T12:43:25;0.63;;;0.47;;
46377;SDS011;32083;47.360;9.650;2022-10-22T12:45:53;1.85;;;0.40;;
46377;SDS011;32083;47.360;9.650;2022-10-22T12:48:35;1.25;;;0.60;;
46377;SDS011;32083;47.360;9.650;2022-10-22T12:51:04;1.90;;;0.50;;
46377;SDS011;32083;47.360;9.650;2022-10-22T12:53:45;2.30;;;0.40;;
46377;SDS011;32083;47.360;9.650;2022-10-22T12:56:23;0.60;;;0.40;;
46377;SDS011;32083;47.360;9.650;2022-10-22T12:58:54;1.58;;;0.82;;
46377;SDS011;32083;47.360;9.650;2022-10-22T13:01:26;1.30;;;0.25;;
46377;SDS011;32083;47.360;9.650;2022-10-22T13:04:16;2.47;;;0.40;;
46377;SDS011;32083;47.360;9.650;2022-10-22T13:09:39;0.95;;;0.45;;
46377;SDS011;32083;47.360;9.650;2022-10-22T13:12:08;1.80;;;0.50;;
46377;SDS011;32083;47.360;9.650;2022-10-22T13:14:40;0.60;;;0.30;;
46377;SDS011;32083;47.360;9.650;2022-10-22T13:17:12;0.65;;;0.40;;
46377;SDS011;32083;47.360;9.650;2022-10-22T13:19:47;6.45;;;0.45;;
46377;SDS011;32083;47.360;9.650;2022-10-22T13:25:21;3.55;;;0.40;;
46377;SDS011;32083;47.360;9.650;2022-10-22T13:30:49;1.63;;;0.30;;
46377;SDS011;32083;47.360;9.650;2022-10-22T13:33:24;0.30;;;0.20;;
46377;SDS011;32083;47.360;9.650;2022-10-22T13:35:56;1.75;;;0.88;;
46377;SDS011;32083;47.360;9.650;2022-10-22T13:38:24;0.40;;;0.20;;
46377;SDS011;32083;47.360;9.650;2022-10-22T13:40:50;1.20;;;0.30;;
46377;SDS011;32083;47.360;9.650;2022-10-22T13:43:17;0.55;;;0.20;;
46377;SDS011;32083;47.360;9.650;2022-10-22T13:45:44;0.47;;;0.30;;
46377;SDS011;32083;47.360;9.650;2022-10-22T13:48:15;0.28;;;0.10;;
46377;SDS011;32083;47.360;9.650;2022-10-22T13:50:44;0.32;;;0.20;;
46377;SDS011;32083;47.360;9.650;2022-10-22T13:53:17;1.75;;;0.20;;
46377;SDS011;32083;47.360;9.650;2022-10-22T13:55:48;0.10;;;0.10;;
46377;SDS011;32083;47.360;9.650;2022-10-22T13:58:18;0.50;;;0.30;;
46377;SDS011;32083;47.360;9.650;2022-10-22T14:00:46;0.40;;;0.20;;
46377;SDS011;32083;47.360;9.650;2022-10-22T14:03:19;2.88;;;0.30;;
46377;SDS011;32083;47.360;9.650;2022-10-22T14:05:47;0.47;;;0.20;;
46377;SDS011;32083;47.360;9.650;2022-10-22T14:08:14;0.30;;;0.20;;
46377;SDS011;32083;47.360;9.650;2022-10-22T14:10:43;2.28;;;0.30;;
46377;SDS011;32083;47.360;9.650;2022-10-22T14:13:10;0.95;;;0.30;;
46377;SDS011;32083;47.360;9.650;2022-10-22T14:15:37;0.45;;;0.20;;
46377;SDS011;32083;47.360;9.650;2022-10-22T14:18:05;0.20;;;0.20;;
46377;SDS011;32083;47.360;9.650;2022-10-22T14:20:33;0.73;;;0.30;;
46377;SDS011;32083;47.360;9.650;2022-10-22T14:23:06;0.75;;;0.20;;
46377;SDS011;32083;47.360;9.650;2022-10-22T14:25:38;1.15;;;0.35;;
46377;SDS011;32083;47.360;9.650;2022-10-22T14:28:05;0.30;;;0.20;;
46377;SDS011;32083;47.360;9.650;2022-10-22T14:30:32;0.40;;;0.30;;
46377;SDS011;32083;47.360;9.650;2022-10-22T14:32:58;0.55;;;0.22;;
46377;SDS011;32083;47.360;9.650;2022-10-22T14:35:24;0.45;;;0.35;;
46377;SDS011;32083;47.360;9.650;2022-10-22T14:37:50;2.25;;;0.30;;
46377;SDS011;32083;47.360;9.650;2022-10-22T14:40:18;0.95;;;0.40;;
46377;SDS011;32083;47.360;9.650;2022-10-22T14:42:46;0.25;;;0.10;;
46377;SDS011;32083;47.360;9.650;2022-10-22T14:45:15;2.78;;;0.50;;
46377;SDS011;32083;47.360;9.650;2022-10-22T14:47:46;1.60;;;0.50;;
46377;SDS011;32083;47.360;9.650;2022-10-22T14:50:13;0.68;;;0.40;;
46377;SDS011;32083;47.360;9.650;2022-10-22T14:52:40;0.60;;;0.30;;
46377;SDS011;32083;47.360;9.650;2022-10-22T14:55:08;0.98;;;0.50;;
46377;SDS011;32083;47.360;9.650;2022-10-22T14:57:35;0.98;;;0.77;;
46377;SDS011;32083;47.360;9.650;2022-10-22T15:00:04;0.90;;;0.60;;
46377;SDS011;32083;47.360;9.650;2022-10-22T15:02:32;4.70;;;0.70;;
46377;SDS011;32083;47.360;9.650;2022-10-22T15:04:58;1.48;;;1.05;;
46377;SDS011;32083;47.360;9.650;2022-10-22T15:07:24;1.05;;;0.70;;
46377;SDS011;32083;47.360;9.650;2022-10-22T15:09:51;1.70;;;0.60;;
46377;SDS011;32083;47.360;9.650;2022-10-22T15:12:18;0.80;;;0.40;;
46377;SDS011;32083;47.360;9.650;2022-10-22T15:14:47;0.30;;;0.20;;
46377;SDS011;32083;47.360;9.650;2022-10-22T15:17:13;1.95;;;0.50;;
46377;SDS011;32083;47.360;9.650;2022-10-22T15:19:41;3.13;;;0.70;;
46377;SDS011;32083;47.360;9.650;2022-10-22T15:22:11;0.73;;;0.60;;
46377;SDS011;32083;47.360;9.650;2022-10-22T15:24:38;2.03;;;0.40;;
46377;SDS011;32083;47.360;9.650;2022-10-22T15:27:05;3.63;;;0.52;;
46377;SDS011;32083;47.360;9.650;2022-10-22T15:29:31;2.53;;;0.75;;
46377;SDS011;32083;47.360;9.650;2022-10-22T15:31:57;2.55;;;0.63;;
46377;SDS011;32083;47.360;9.650;2022-10-22T15:34:28;2.75;;;0.70;;
46377;SDS011;32083;47.360;9.650;2022-10-22T15:36:58;1.20;;;0.63;;
46377;SDS011;32083;47.360;9.650;2022-10-22T15:39:25;1.15;;;0.50;;
46377;SDS011;32083;47.360;9.650;2022-10-22T15:41:52;0.82;;;0.60;;
46377;SDS011;32083;47.360;9.650;2022-10-22T15:44:20;3.50;;;3.00;;
46377;SDS011;32083;47.360;9.650;2022-10-22T15:46:48;4.25;;;1.48;;
46377;SDS011;32083;47.360;9.650;2022-10-22T15:49:19;3.35;;;1.00;;
46377;SDS011;32083;47.360;9.650;2022-10-22T15:51:46;2.03;;;1.15;;
46377;SDS011;32083;47.360;9.650;2022-10-22T15:54:13;1.05;;;0.80;;
46377;SDS011;32083;47.360;9.650;2022-10-22T15:56:41;2.35;;;1.20;;
46377;SDS011;32083;47.360;9.650;2022-10-22T15:59:08;1.70;;;1.00;;
46377;SDS011;32083;47.360;9.650;2022-10-22T16:01:35;2.30;;;1.00;;
46377;SDS011;32083;47.360;9.650;2022-10-22T16:04:02;2.92;;;1.55;;
46377;SDS011;32083;47.360;9.650;2022-10-22T16:06:29;1.30;;;0.80;;
46377;SDS011;32083;47.360;9.650;2022-10-22T16:08:59;2.08;;;0.90;;
46377;SDS011;32083;47.360;9.650;2022-10-22T16:11:27;2.28;;;1.17;;
46377;SDS011;32083;47.360;9.650;2022-10-22T16:13:54;3.13;;;1.30;;
46377;SDS011;32083;47.360;9.650;2022-10-22T16:16:22;2.83;;;1.35;;
46377;SDS011;32083;47.360;9.650;2022-10-22T16:18:49;4.15;;;1.52;;
46377;SDS011;32083;47.360;9.650;2022-10-22T16:21:16;6.28;;;2.00;;
46377;SDS011;32083;47.360;9.650;2022-10-22T16:23:42;3.05;;;2.08;;
46377;SDS011;32083;47.360;9.650;2022-10-22T16:26:09;4.60;;;1.83;;
46377;SDS011;32083;47.360;9.650;2022-10-22T16:28:35;3.65;;;2.05;;
46377;SDS011;32083;47.360;9.650;2022-10-22T16:31:02;4.78;;;2.22;;
46377;SDS011;32083;47.360;9.650;2022-10-22T16:33:29;6.38;;;2.30;;
46377;SDS011;32083;47.360;9.650;2022-10-22T16:35:57;3.03;;;2.45;;
46377;SDS011;32083;47.360;9.650;2022-10-22T16:38:23;3.83;;;2.13;;
46377;SDS011;32083;47.360;9.650;2022-10-22T16:40:53;3.67;;;2.60;;
46377;SDS011;32083;47.360;9.650;2022-10-22T16:43:30;3.90;;;2.78;;
46377;SDS011;32083;47.360;9.650;2022-10-22T16:45:56;4.13;;;3.15;;
46377;SDS011;32083;47.360;9.650;2022-10-22T16:48:22;4.75;;;3.10;;
46377;SDS011;32083;47.360;9.650;2022-10-22T16:50:48;5.07;;;3.95;;
46377;SDS011;32083;47.360;9.650;2022-10-22T16:53:14;4.20;;;3.63;;
46377;SDS011;32083;47.360;9.650;2022-10-22T16:55:40;4.95;;;4.45;;
46377;SDS011;32083;47.360;9.650;2022-10-22T16:58:05;6.35;;;4.45;;
46377;SDS011;32083;47.360;9.650;2022-10-22T17:00:32;6.80;;;4.93;;
46377;SDS011;32083;47.360;9.650;2022-10-22T17:02:58;6.43;;;4.07;;
46377;SDS011;32083;47.360;9.650;2022-10-22T17:05:24;6.53;;;4.20;;
46377;SDS011;32083;47.360;9.650;2022-10-22T17:07:50;7.72;;;4.13;;
46377;SDS011;32083;47.360;9.650;2022-10-22T17:10:17;5.70;;;4.15;;
46377;SDS011;32083;47.360;9.650;2022-10-22T17:12:45;4.97;;;4.28;;
46377;SDS011;32083;47.360;9.650;2022-10-22T17:15:12;6.97;;;4.25;;
46377;SDS011;32083;47.360;9.650;2022-10-22T17:17:38;8.13;;;4.97;;
46377;SDS011;32083;47.360;9.650;2022-10-22T17:20:04;6.68;;;4.63;;
46377;SDS011;32083;47.360;9.650;2022-10-22T17:22:31;13.68;;;5.43;;
46377;SDS011;32083;47.360;9.650;2022-10-22T17:25:18;4.50;;;3.85;;
46377;SDS011;32083;47.360;9.650;2022-10-22T17:27:48;7.05;;;4.38;;
46377;SDS011;32083;47.360;9.650;2022-10-22T17:30:15;8.18;;;4.45;;
46377;SDS011;32083;47.360;9.650;2022-10-22T17:32:43;10.05;;;4.93;;
46377;SDS011;32083;47.360;9.650;2022-10-22T17:35:10;6.13;;;4.45;;
46377;SDS011;32083;47.360;9.650;2022-10-22T17:37:38;8.73;;;4.88;;
46377;SDS011;32083;47.360;9.650;2022-10-22T17:40:05;8.85;;;5.45;;
46377;SDS011;32083;47.360;9.650;2022-10-22T17:42:31;6.20;;;5.57;;
46377;SDS011;32083;47.360;9.650;2022-10-22T17:44:58;8.30;;;5.25;;
46377;SDS011;32083;47.360;9.650;2022-10-22T17:47:24;7.63;;;5.65;;
46377;SDS011;32083;47.360;9.650;2022-10-22T17:49:50;6.40;;;5.57;;
46377;SDS011;32083;47.360;9.650;2022-10-22T17:52:15;5.45;;;4.82;;
46377;SDS011;32083;47.360;9.650;2022-10-22T17:54:42;6.18;;;5.20;;
46377;SDS011;32083;47.360;9.650;2022-10-22T17:57:08;5.93;;;5.05;;
46377;SDS011;32083;47.360;9.650;2022-10-22T17:59:36;5.80;;;4.68;;
46377;SDS011;32083;47.360;9.650;2022-10-22T18:02:02;5.15;;;4.30;;
46377;SDS011;32083;47.360;9.650;2022-10-22T18:04:29;7.70;;;4.18;;
46377;SDS011;32083;47.360;9.650;2022-10-22T18:06:56;6.43;;;3.88;;
46377;SDS011;32083;47.360;9.650;2022-10-22T18:09:24;6.22;;;5.05;;
46377;SDS011;32083;47.360;9.650;2022-10-22T18:11:51;5.50;;;4.95;;
46377;SDS011;32083;47.360;9.650;2022-10-22T18:14:18;6.82;;;5.38;;
46377;SDS011;32083;47.360;9.650;2022-10-22T18:16:46;6.35;;;4.50;;
46377;SDS011;32083;47.360;9.650;2022-10-22T18:19:17;5.40;;;4.90;;
46377;SDS011;32083;47.360;9.650;2022-10-22T18:21:46;5.32;;;4.22;;
46377;SDS011;32083;47.360;9.650;2022-10-22T18:24:13;4.82;;;4.03;;
46377;SDS011;32083;47.360;9.650;2022-10-22T18:26:41;7.20;;;4.70;;
46377;SDS011;32083;47.360;9.650;2022-10-22T18:29:08;6.32;;;4.05;;
46377;SDS011;32083;47.360;9.650;2022-10-22T18:31:37;5.65;;;3.90;;
46377;SDS011;32083;47.360;9.650;2022-10-22T18:34:05;4.95;;;3.80;;
46377;SDS011;32083;47.360;9.650;2022-10-22T18:36:31;6.30;;;3.53;;
46377;SDS011;32083;47.360;9.650;2022-10-22T18:38:58;4.25;;;3.65;;
46377;SDS011;32083;47.360;9.650;2022-10-22T18:41:26;4.95;;;3.50;;
46377;SDS011;32083;47.360;9.650;2022-10-22T18:43:57;5.47;;;4.00;;
46377;SDS011;32083;47.360;9.650;2022-10-22T18:46:27;6.32;;;3.63;;
46377;SDS011;32083;47.360;9.650;2022-10-22T18:48:55;4.82;;;3.88;;
46377;SDS011;32083;47.360;9.650;2022-10-22T18:51:22;4.53;;;3.45;;
46377;SDS011;32083;47.360;9.650;2022-10-22T18:53:50;4.55;;;3.60;;
46377;SDS011;32083;47.360;9.650;2022-10-22T18:56:18;5.30;;;4.07;;
46377;SDS011;32083;47.360;9.650;2022-10-22T18:58:45;6.72;;;4.50;;
46377;SDS011;32083;47.360;9.650;2022-10-22T19:01:13;8.25;;;5.78;;
46377;SDS011;32083;47.360;9.650;2022-10-22T19:03:42;12.70;;;7.30;;
46377;SDS011;32083;47.360;9.650;2022-10-22T19:06:08;14.45;;;9.55;;
46377;SDS011;32083;47.360;9.650;2022-10-22T19:08:36;10.20;;;7.40;;
46377;SDS011;32083;47.360;9.650;2022-10-22T19:11:12;10.68;;;6.20;;
46377;SDS011;32083;47.360;9.650;2022-10-22T19:13:40;9.63;;;6.43;;
46377;SDS011;32083;47.360;9.650;2022-10-22T19:16:07;9.85;;;6.15;;
46377;SDS011;32083;47.360;9.650;2022-10-22T19:18:36;7.85;;;5.63;;
46377;SDS011;32083;47.360;9.650;2022-10-22T19:21:06;12.13;;;7.75;;
46377;SDS011;32083;47.360;9.650;2022-10-22T19:23:32;7.68;;;5.80;;
46377;SDS011;32083;47.360;9.650;2022-10-22T19:26:06;11.75;;;6.13;;
46377;SDS011;32083;47.360;9.650;2022-10-22T19:28:34;9.15;;;6.22;;
46377;SDS011;32083;47.360;9.650;2022-10-22T19:31:05;6.93;;;4.97;;
46377;SDS011;32083;47.360;9.650;2022-10-22T19:33:33;7.97;;;5.68;;
46377;SDS011;32083;47.360;9.650;2022-10-22T19:36:03;9.18;;;5.93;;
46377;SDS011;32083;47.360;9.650;2022-10-22T19:38:30;10.20;;;5.93;;
46377;SDS011;32083;47.360;9.650;2022-10-22T19:40:56;9.57;;;6.28;;
46377;SDS011;32083;47.360;9.650;2022-10-22T19:43:23;7.55;;;5.30;;